sensor_id;sensor_type;location;lat;lon;timestamp;P1;durP1;ratioP1;P2;durP2;ratioP2
6288;SDS011;3177;49.880;8.836;2023-04-06T00:00:50;8.20;;;5.60;;
6288;SDS011;3177;49.880;8.836;2023-04-06T00:03:17;8.63;;;6.10;;
6288;SDS011;3177;49.880;8.836;2023-04-06T00:05:44;9.80;;;6.40;;
6288;SDS011;3177;49.880;8.836;2023-04-06T00:08:11;8.00;;;6.13;;
6288;SDS011;3177;49.880;8.836;2023-04-06T00:10:38;8.67;;;5.70;;
6288;SDS011;3177;49.880;8.836;2023-04-06T00:13:05;9.13;;;5.90;;
6288;SDS011;3177;49.880;8.836;2023-04-06T00:15:32;6.33;;;5.67;;
6288;SDS011;3177;49.880;8.836;2023-04-06T00:18:01;7.97;;;6.13;;
6288;SDS011;3177;49.880;8.836;2023-04-06T00:20:28;7.57;;;6.10;;
6288;SDS011;3177;49.880;8.836;2023-04-06T00:22:55;7.90;;;6.57;;
6288;SDS011;3177;49.880;8.836;2023-04-06T00:25:22;8.50;;;5.87;;
6288;SDS011;3177;49.880;8.836;2023-04-06T00:27:50;7.70;;;6.00;;
6288;SDS011;3177;49.880;8.836;2023-04-06T00:30:17;7.10;;;5.90;;
6288;SDS011;3177;49.880;8.836;2023-04-06T00:32:44;8.90;;;6.20;;
6288;SDS011;3177;49.880;8.836;2023-04-06T00:35:12;8.07;;;6.63;;
6288;SDS011;3177;49.880;8.836;2023-04-06T00:37:40;7.17;;;5.90;;
6288;SDS011;3177;49.880;8.836;2023-04-06T00:40:08;8.50;;;6.13;;
6288;SDS011;3177;49.880;8.836;2023-04-06T00:42:35;6.53;;;5.70;;
6288;SDS011;3177;49.880;8.836;2023-04-06T00:45:02;6.57;;;5.87;;
6288;SDS011;3177;49.880;8.836;2023-04-06T00:47:29;6.03;;;5.27;;
6288;SDS011;3177;49.880;8.836;2023-04-06T00:49:56;7.10;;;6.50;;
6288;SDS011;3177;49.880;8.836;2023-04-06T00:52:25;8.60;;;5.87;;
6288;SDS011;3177;49.880;8.836;2023-04-06T00:54:52;7.83;;;5.70;;
6288;SDS011;3177;49.880;8.836;2023-04-06T00:57:19;6.80;;;5.73;;
6288;SDS011;3177;49.880;8.836;2023-04-06T00:59:46;6.23;;;5.63;;
6288;SDS011;3177;49.880;8.836;2023-04-06T01:02:13;8.83;;;6.23;;
6288;SDS011;3177;49.880;8.836;2023-04-06T01:04:41;6.83;;;5.87;;
6288;SDS011;3177;49.880;8.836;2023-04-06T01:07:08;6.63;;;6.00;;
6288;SDS011;3177;49.880;8.836;2023-04-06T01:09:36;7.40;;;5.67;;
6288;SDS011;3177;49.880;8.836;2023-04-06T01:12:06;6.43;;;5.83;;
6288;SDS011;3177;49.880;8.836;2023-04-06T01:14:33;8.30;;;6.10;;
6288;SDS011;3177;49.880;8.836;2023-04-06T01:17:00;8.43;;;6.17;;
6288;SDS011;3177;49.880;8.836;2023-04-06T01:19:27;7.67;;;5.70;;
6288;SDS011;3177;49.880;8.836;2023-04-06T01:21:54;6.50;;;5.83;;
6288;SDS011;3177;49.880;8.836;2023-04-06T01:24:22;7.77;;;5.80;;
6288;SDS011;3177;49.880;8.836;2023-04-06T01:26:49;6.73;;;6.07;;
6288;SDS011;3177;49.880;8.836;2023-04-06T01:29:16;6.67;;;6.00;;
6288;SDS011;3177;49.880;8.836;2023-04-06T01:31:44;8.87;;;5.63;;
6288;SDS011;3177;49.880;8.836;2023-04-06T01:34:11;8.30;;;6.13;;
6288;SDS011;3177;49.880;8.836;2023-04-06T01:36:38;5.83;;;5.20;;
6288;SDS011;3177;49.880;8.836;2023-04-06T01:39:05;8.10;;;6.07;;
6288;SDS011;3177;49.880;8.836;2023-04-06T01:41:34;7.90;;;6.03;;
6288;SDS011;3177;49.880;8.836;2023-04-06T01:44:01;6.97;;;5.80;;
6288;SDS011;3177;49.880;8.836;2023-04-06T01:46:28;7.37;;;5.50;;
6288;SDS011;3177;49.880;8.836;2023-04-06T01:48:55;8.03;;;5.90;;
6288;SDS011;3177;49.880;8.836;2023-04-06T01:51:22;8.33;;;6.50;;
6288;SDS011;3177;49.880;8.836;2023-04-06T01:53:50;6.23;;;5.60;;
6288;SDS011;3177;49.880;8.836;2023-04-06T01:56:18;7.00;;;6.10;;
6288;SDS011;3177;49.880;8.836;2023-04-06T01:58:46;6.87;;;6.17;;
6288;SDS011;3177;49.880;8.836;2023-04-06T02:01:13;9.80;;;7.07;;
6288;SDS011;3177;49.880;8.836;2023-04-06T02:03:40;7.17;;;6.10;;
6288;SDS011;3177;49.880;8.836;2023-04-06T02:06:07;8.50;;;5.80;;
6288;SDS011;3177;49.880;8.836;2023-04-06T02:08:35;6.33;;;5.60;;
6288;SDS011;3177;49.880;8.836;2023-04-06T02:11:02;8.20;;;5.97;;
6288;SDS011;3177;49.880;8.836;2023-04-06T02:13:29;8.60;;;6.57;;
6288;SDS011;3177;49.880;8.836;2023-04-06T02:15:57;6.60;;;5.90;;
6288;SDS011;3177;49.880;8.836;2023-04-06T02:18:24;7.47;;;6.17;;
6288;SDS011;3177;49.880;8.836;2023-04-06T02:20:52;7.93;;;5.93;;
6288;SDS011;3177;49.880;8.836;2023-04-06T02:23:19;9.10;;;5.90;;
6288;SDS011;3177;49.880;8.836;2023-04-06T02:25:46;6.13;;;5.37;;
6288;SDS011;3177;49.880;8.836;2023-04-06T02:28:13;7.27;;;4.90;;
6288;SDS011;3177;49.880;8.836;2023-04-06T02:30:40;7.57;;;6.00;;
6288;SDS011;3177;49.880;8.836;2023-04-06T02:33:09;5.57;;;5.07;;
6288;SDS011;3177;49.880;8.836;2023-04-06T02:35:36;5.83;;;5.23;;
6288;SDS011;3177;49.880;8.836;2023-04-06T02:38:03;5.77;;;5.03;;
6288;SDS011;3177;49.880;8.836;2023-04-06T02:40:30;6.97;;;5.37;;
6288;SDS011;3177;49.880;8.836;2023-04-06T02:42:57;6.17;;;5.57;;
6288;SDS011;3177;49.880;8.836;2023-04-06T02:45:24;9.00;;;6.10;;
6288;SDS011;3177;49.880;8.836;2023-04-06T02:47:51;6.47;;;5.47;;
6288;SDS011;3177;49.880;8.836;2023-04-06T02:50:20;6.73;;;5.53;;
6288;SDS011;3177;49.880;8.836;2023-04-06T02:52:47;7.13;;;5.83;;
6288;SDS011;3177;49.880;8.836;2023-04-06T02:55:14;5.87;;;5.27;;
6288;SDS011;3177;49.880;8.836;2023-04-06T02:57:41;12.27;;;4.93;;
6288;SDS011;3177;49.880;8.836;2023-04-06T03:00:09;7.33;;;5.47;;
6288;SDS011;3177;49.880;8.836;2023-04-06T03:02:36;7.27;;;5.50;;
6288;SDS011;3177;49.880;8.836;2023-04-06T03:05:03;5.63;;;4.90;;
6288;SDS011;3177;49.880;8.836;2023-04-06T03:07:32;6.67;;;5.63;;
6288;SDS011;3177;49.880;8.836;2023-04-06T03:09:59;6.00;;;5.43;;
6288;SDS011;3177;49.880;8.836;2023-04-06T03:12:26;9.03;;;5.57;;
6288;SDS011;3177;49.880;8.836;2023-04-06T03:14:53;6.57;;;5.10;;
6288;SDS011;3177;49.880;8.836;2023-04-06T03:17:20;8.60;;;5.27;;
6288;SDS011;3177;49.880;8.836;2023-04-06T03:19:47;5.63;;;5.13;;
6288;SDS011;3177;49.880;8.836;2023-04-06T03:22:14;7.10;;;5.10;;
6288;SDS011;3177;49.880;8.836;2023-04-06T03:24:43;7.70;;;5.20;;
6288;SDS011;3177;49.880;8.836;2023-04-06T03:27:10;6.03;;;5.50;;
6288;SDS011;3177;49.880;8.836;2023-04-06T03:29:37;5.80;;;5.20;;
6288;SDS011;3177;49.880;8.836;2023-04-06T03:32:04;5.80;;;5.20;;
6288;SDS011;3177;49.880;8.836;2023-04-06T03:34:31;8.50;;;5.97;;
6288;SDS011;3177;49.880;8.836;2023-04-06T03:36:58;8.60;;;5.50;;
6288;SDS011;3177;49.880;8.836;2023-04-06T03:39:25;6.23;;;5.60;;
6288;SDS011;3177;49.880;8.836;2023-04-06T03:41:54;10.23;;;5.30;;
6288;SDS011;3177;49.880;8.836;2023-04-06T03:44:21;5.73;;;5.17;;
6288;SDS011;3177;49.880;8.836;2023-04-06T03:46:48;6.00;;;5.07;;
6288;SDS011;3177;49.880;8.836;2023-04-06T03:49:15;5.77;;;5.27;;
6288;SDS011;3177;49.880;8.836;2023-04-06T03:51:42;6.73;;;4.97;;
6288;SDS011;3177;49.880;8.836;2023-04-06T03:54:09;5.83;;;5.30;;
6288;SDS011;3177;49.880;8.836;2023-04-06T03:56:36;8.27;;;5.73;;
6288;SDS011;3177;49.880;8.836;2023-04-06T03:59:04;14.83;;;5.17;;
6288;SDS011;3177;49.880;8.836;2023-04-06T04:01:31;6.17;;;5.57;;
6288;SDS011;3177;49.880;8.836;2023-04-06T04:03:59;6.17;;;5.30;;
6288;SDS011;3177;49.880;8.836;2023-04-06T04:06:26;6.53;;;5.70;;
6288;SDS011;3177;49.880;8.836;2023-04-06T04:08:53;6.93;;;5.57;;
6288;SDS011;3177;49.880;8.836;2023-04-06T04:11:20;6.27;;;5.67;;
6288;SDS011;3177;49.880;8.836;2023-04-06T04:13:47;8.80;;;5.40;;
6288;SDS011;3177;49.880;8.836;2023-04-06T04:16:15;6.87;;;5.63;;
6288;SDS011;3177;49.880;8.836;2023-04-06T04:18:42;9.13;;;6.20;;
6288;SDS011;3177;49.880;8.836;2023-04-06T04:21:12;6.30;;;5.23;;
6288;SDS011;3177;49.880;8.836;2023-04-06T04:23:39;9.27;;;5.67;;
6288;SDS011;3177;49.880;8.836;2023-04-06T04:26:06;7.10;;;5.43;;
6288;SDS011;3177;49.880;8.836;2023-04-06T04:28:33;6.40;;;5.67;;
6288;SDS011;3177;49.880;8.836;2023-04-06T04:31:00;15.60;;;6.00;;
6288;SDS011;3177;49.880;8.836;2023-04-06T04:33:38;9.87;;;5.00;;
6288;SDS011;3177;49.880;8.836;2023-04-06T04:36:06;5.53;;;5.03;;
6288;SDS011;3177;49.880;8.836;2023-04-06T04:38:33;6.27;;;5.60;;
6288;SDS011;3177;49.880;8.836;2023-04-06T04:41:00;6.67;;;4.93;;
6288;SDS011;3177;49.880;8.836;2023-04-06T04:43:27;5.83;;;5.23;;
6288;SDS011;3177;49.880;8.836;2023-04-06T04:45:54;6.10;;;5.43;;
6288;SDS011;3177;49.880;8.836;2023-04-06T04:48:21;6.30;;;5.70;;
6288;SDS011;3177;49.880;8.836;2023-04-06T04:50:50;7.97;;;5.60;;
6288;SDS011;3177;49.880;8.836;2023-04-06T04:53:17;7.67;;;6.63;;
6288;SDS011;3177;49.880;8.836;2023-04-06T04:55:44;6.47;;;5.50;;
6288;SDS011;3177;49.880;8.836;2023-04-06T04:58:11;5.80;;;4.80;;
6288;SDS011;3177;49.880;8.836;2023-04-06T05:00:41;11.87;;;5.97;;
6288;SDS011;3177;49.880;8.836;2023-04-06T05:03:08;6.50;;;5.63;;
6288;SDS011;3177;49.880;8.836;2023-04-06T05:05:35;6.47;;;5.87;;
6288;SDS011;3177;49.880;8.836;2023-04-06T05:08:04;7.03;;;5.97;;
6288;SDS011;3177;49.880;8.836;2023-04-06T05:10:31;9.70;;;5.73;;
6288;SDS011;3177;49.880;8.836;2023-04-06T05:12:59;7.90;;;5.97;;
6288;SDS011;3177;49.880;8.836;2023-04-06T05:15:26;6.57;;;5.87;;
6288;SDS011;3177;49.880;8.836;2023-04-06T05:17:53;9.57;;;6.37;;
6288;SDS011;3177;49.880;8.836;2023-04-06T05:20:20;6.97;;;5.57;;
6288;SDS011;3177;49.880;8.836;2023-04-06T05:22:47;7.37;;;5.67;;
6288;SDS011;3177;49.880;8.836;2023-04-06T05:25:15;9.50;;;7.53;;
6288;SDS011;3177;49.880;8.836;2023-04-06T05:27:42;9.77;;;6.33;;
6288;SDS011;3177;49.880;8.836;2023-04-06T05:30:10;7.07;;;5.77;;
6288;SDS011;3177;49.880;8.836;2023-04-06T05:32:37;6.07;;;5.47;;
6288;SDS011;3177;49.880;8.836;2023-04-06T05:35:04;7.83;;;5.60;;
6288;SDS011;3177;49.880;8.836;2023-04-06T05:37:31;9.40;;;6.37;;
6288;SDS011;3177;49.880;8.836;2023-04-06T05:39:58;11.73;;;6.13;;
6288;SDS011;3177;49.880;8.836;2023-04-06T05:42:27;7.43;;;6.23;;
6288;SDS011;3177;49.880;8.836;2023-04-06T05:44:55;7.23;;;6.53;;
6288;SDS011;3177;49.880;8.836;2023-04-06T05:47:22;6.70;;;6.03;;
6288;SDS011;3177;49.880;8.836;2023-04-06T05:49:49;9.13;;;6.10;;
6288;SDS011;3177;49.880;8.836;2023-04-06T05:52:16;11.73;;;6.33;;
6288;SDS011;3177;49.880;8.836;2023-04-06T05:54:43;8.00;;;5.93;;
6288;SDS011;3177;49.880;8.836;2023-04-06T05:57:10;9.80;;;6.80;;
6288;SDS011;3177;49.880;8.836;2023-04-06T05:59:38;9.47;;;6.80;;
6288;SDS011;3177;49.880;8.836;2023-04-06T06:02:07;7.80;;;6.40;;
6288;SDS011;3177;49.880;8.836;2023-04-06T06:04:34;7.73;;;6.63;;
6288;SDS011;3177;49.880;8.836;2023-04-06T06:07:01;7.83;;;6.93;;
6288;SDS011;3177;49.880;8.836;2023-04-06T06:09:28;15.70;;;7.50;;
6288;SDS011;3177;49.880;8.836;2023-04-06T06:11:55;9.40;;;6.67;;
6288;SDS011;3177;49.880;8.836;2023-04-06T06:14:22;7.60;;;6.80;;
6288;SDS011;3177;49.880;8.836;2023-04-06T06:16:51;9.57;;;7.17;;
6288;SDS011;3177;49.880;8.836;2023-04-06T06:19:18;7.70;;;6.90;;
6288;SDS011;3177;49.880;8.836;2023-04-06T06:21:45;8.87;;;7.10;;
6288;SDS011;3177;49.880;8.836;2023-04-06T06:24:12;7.37;;;6.60;;
6288;SDS011;3177;49.880;8.836;2023-04-06T06:26:39;18.53;;;7.50;;
6288;SDS011;3177;49.880;8.836;2023-04-06T06:29:06;9.17;;;6.17;;
6288;SDS011;3177;49.880;8.836;2023-04-06T06:31:33;8.60;;;7.47;;
6288;SDS011;3177;49.880;8.836;2023-04-06T06:34:01;7.90;;;6.80;;
6288;SDS011;3177;49.880;8.836;2023-04-06T06:36:28;9.67;;;7.63;;
6288;SDS011;3177;49.880;8.836;2023-04-06T06:38:56;11.77;;;6.90;;
6288;SDS011;3177;49.880;8.836;2023-04-06T06:41:25;11.93;;;7.47;;
6288;SDS011;3177;49.880;8.836;2023-04-06T06:43:52;11.97;;;7.80;;
6288;SDS011;3177;49.880;8.836;2023-04-06T06:46:19;9.40;;;7.17;;
6288;SDS011;3177;49.880;8.836;2023-04-06T06:48:46;8.27;;;6.97;;
6288;SDS011;3177;49.880;8.836;2023-04-06T06:51:15;7.33;;;6.40;;
6288;SDS011;3177;49.880;8.836;2023-04-06T06:53:42;10.30;;;7.43;;
6288;SDS011;3177;49.880;8.836;2023-04-06T06:56:09;11.07;;;7.43;;
6288;SDS011;3177;49.880;8.836;2023-04-06T06:58:37;9.97;;;8.20;;
6288;SDS011;3177;49.880;8.836;2023-04-06T07:01:04;13.00;;;8.43;;
6288;SDS011;3177;49.880;8.836;2023-04-06T07:03:33;9.60;;;7.97;;
6288;SDS011;3177;49.880;8.836;2023-04-06T07:06:00;11.83;;;8.63;;
6288;SDS011;3177;49.880;8.836;2023-04-06T07:08:28;13.20;;;8.43;;
6288;SDS011;3177;49.880;8.836;2023-04-06T07:10:55;43.73;;;18.07;;
6288;SDS011;3177;49.880;8.836;2023-04-06T07:13:22;11.50;;;8.60;;
6288;SDS011;3177;49.880;8.836;2023-04-06T07:15:52;10.67;;;8.83;;
6288;SDS011;3177;49.880;8.836;2023-04-06T07:18:19;11.13;;;8.30;;
6288;SDS011;3177;49.880;8.836;2023-04-06T07:20:46;9.03;;;8.03;;
6288;SDS011;3177;49.880;8.836;2023-04-06T07:23:13;9.63;;;8.30;;
6288;SDS011;3177;49.880;8.836;2023-04-06T07:25:42;13.43;;;8.60;;
6288;SDS011;3177;49.880;8.836;2023-04-06T07:28:09;14.20;;;9.20;;
6288;SDS011;3177;49.880;8.836;2023-04-06T07:30:36;12.67;;;8.67;;
6288;SDS011;3177;49.880;8.836;2023-04-06T07:33:03;12.30;;;9.57;;
6288;SDS011;3177;49.880;8.836;2023-04-06T07:35:31;11.20;;;8.27;;
6288;SDS011;3177;49.880;8.836;2023-04-06T07:37:59;9.07;;;7.93;;
6288;SDS011;3177;49.880;8.836;2023-04-06T07:40:26;19.03;;;8.43;;
6288;SDS011;3177;49.880;8.836;2023-04-06T07:42:55;10.43;;;8.63;;
6288;SDS011;3177;49.880;8.836;2023-04-06T07:45:22;15.27;;;10.90;;
6288;SDS011;3177;49.880;8.836;2023-04-06T07:47:49;11.67;;;8.93;;
6288;SDS011;3177;49.880;8.836;2023-04-06T07:50:16;12.13;;;9.30;;
6288;SDS011;3177;49.880;8.836;2023-04-06T07:52:43;10.27;;;8.60;;
6288;SDS011;3177;49.880;8.836;2023-04-06T07:55:10;9.33;;;7.80;;
6288;SDS011;3177;49.880;8.836;2023-04-06T07:57:37;9.87;;;8.17;;
6288;SDS011;3177;49.880;8.836;2023-04-06T08:00:07;9.90;;;8.10;;
6288;SDS011;3177;49.880;8.836;2023-04-06T08:02:35;8.47;;;7.57;;
6288;SDS011;3177;49.880;8.836;2023-04-06T08:05:02;8.03;;;6.57;;
6288;SDS011;3177;49.880;8.836;2023-04-06T08:07:30;10.30;;;7.50;;
6288;SDS011;3177;49.880;8.836;2023-04-06T08:09:57;8.30;;;7.43;;
6288;SDS011;3177;49.880;8.836;2023-04-06T08:12:24;9.03;;;7.10;;
6288;SDS011;3177;49.880;8.836;2023-04-06T08:14:51;8.07;;;6.80;;
6288;SDS011;3177;49.880;8.836;2023-04-06T08:17:20;10.70;;;7.50;;
6288;SDS011;3177;49.880;8.836;2023-04-06T08:19:47;11.67;;;7.20;;
6288;SDS011;3177;49.880;8.836;2023-04-06T08:22:14;8.33;;;7.00;;
6288;SDS011;3177;49.880;8.836;2023-04-06T08:24:41;8.63;;;7.73;;
6288;SDS011;3177;49.880;8.836;2023-04-06T08:27:08;8.73;;;7.80;;
6288;SDS011;3177;49.880;8.836;2023-04-06T08:29:35;7.93;;;6.90;;
6288;SDS011;3177;49.880;8.836;2023-04-06T08:32:03;8.73;;;6.80;;
6288;SDS011;3177;49.880;8.836;2023-04-06T08:34:33;10.67;;;7.27;;
6288;SDS011;3177;49.880;8.836;2023-04-06T08:37:00;7.70;;;6.80;;
6288;SDS011;3177;49.880;8.836;2023-04-06T08:39:27;12.23;;;6.93;;
6288;SDS011;3177;49.880;8.836;2023-04-06T08:41:55;7.83;;;7.03;;
6288;SDS011;3177;49.880;8.836;2023-04-06T08:44:24;9.40;;;7.37;;
6288;SDS011;3177;49.880;8.836;2023-04-06T08:46:51;7.77;;;6.80;;
6288;SDS011;3177;49.880;8.836;2023-04-06T08:49:18;7.87;;;6.63;;
6288;SDS011;3177;49.880;8.836;2023-04-06T08:51:47;9.40;;;6.80;;
6288;SDS011;3177;49.880;8.836;2023-04-06T08:54:14;11.70;;;7.80;;
6288;SDS011;3177;49.880;8.836;2023-04-06T08:56:41;7.13;;;6.20;;
6288;SDS011;3177;49.880;8.836;2023-04-06T08:59:09;9.90;;;6.73;;
6288;SDS011;3177;49.880;8.836;2023-04-06T09:01:38;10.77;;;7.37;;
6288;SDS011;3177;49.880;8.836;2023-04-06T09:04:06;8.87;;;6.70;;
6288;SDS011;3177;49.880;8.836;2023-04-06T09:06:35;8.90;;;6.47;;
6288;SDS011;3177;49.880;8.836;2023-04-06T09:09:06;7.90;;;6.53;;
6288;SDS011;3177;49.880;8.836;2023-04-06T09:11:43;10.10;;;6.40;;
6288;SDS011;3177;49.880;8.836;2023-04-06T09:17:05;7.37;;;6.13;;
6288;SDS011;3177;49.880;8.836;2023-04-06T09:19:44;7.63;;;6.40;;
6288;SDS011;3177;49.880;8.836;2023-04-06T09:22:11;11.17;;;6.60;;
6288;SDS011;3177;49.880;8.836;2023-04-06T09:24:41;6.60;;;5.97;;
6288;SDS011;3177;49.880;8.836;2023-04-06T09:27:15;7.60;;;6.20;;
6288;SDS011;3177;49.880;8.836;2023-04-06T09:29:43;8.43;;;6.30;;
6288;SDS011;3177;49.880;8.836;2023-04-06T09:32:11;8.07;;;5.40;;
6288;SDS011;3177;49.880;8.836;2023-04-06T09:34:42;7.33;;;6.23;;
6288;SDS011;3177;49.880;8.836;2023-04-06T09:37:13;6.20;;;5.23;;
6288;SDS011;3177;49.880;8.836;2023-04-06T09:39:42;8.60;;;5.50;;
6288;SDS011;3177;49.880;8.836;2023-04-06T09:42:09;6.90;;;6.13;;
6288;SDS011;3177;49.880;8.836;2023-04-06T09:44:36;9.00;;;5.87;;
6288;SDS011;3177;49.880;8.836;2023-04-06T09:47:09;10.13;;;7.30;;
6288;SDS011;3177;49.880;8.836;2023-04-06T09:49:36;9.60;;;5.80;;
6288;SDS011;3177;49.880;8.836;2023-04-06T09:52:03;9.43;;;5.87;;
6288;SDS011;3177;49.880;8.836;2023-04-06T09:54:31;11.37;;;5.60;;
6288;SDS011;3177;49.880;8.836;2023-04-06T09:57:03;6.93;;;5.47;;
6288;SDS011;3177;49.880;8.836;2023-04-06T09:59:37;9.50;;;6.03;;
6288;SDS011;3177;49.880;8.836;2023-04-06T10:02:06;7.83;;;6.13;;
6288;SDS011;3177;49.880;8.836;2023-04-06T10:04:36;8.33;;;5.50;;
6288;SDS011;3177;49.880;8.836;2023-04-06T10:07:05;9.47;;;6.40;;
6288;SDS011;3177;49.880;8.836;2023-04-06T10:09:33;9.53;;;6.13;;
6288;SDS011;3177;49.880;8.836;2023-04-06T10:12:03;9.90;;;5.97;;
6288;SDS011;3177;49.880;8.836;2023-04-06T10:14:31;7.22;;;5.25;;
6288;SDS011;3177;49.880;8.836;2023-04-06T10:17:07;7.28;;;5.22;;
6288;SDS011;3177;49.880;8.836;2023-04-06T10:19:39;7.47;;;5.78;;
6288;SDS011;3177;49.880;8.836;2023-04-06T10:22:06;9.10;;;5.93;;
6288;SDS011;3177;49.880;8.836;2023-04-06T10:24:35;6.72;;;5.07;;
6288;SDS011;3177;49.880;8.836;2023-04-06T10:27:04;7.95;;;5.97;;
6288;SDS011;3177;49.880;8.836;2023-04-06T10:29:43;7.10;;;5.60;;
6288;SDS011;3177;49.880;8.836;2023-04-06T10:32:11;8.20;;;5.68;;
6288;SDS011;3177;49.880;8.836;2023-04-06T10:34:38;9.45;;;6.03;;
6288;SDS011;3177;49.880;8.836;2023-04-06T10:37:15;6.65;;;5.78;;
6288;SDS011;3177;49.880;8.836;2023-04-06T10:39:47;7.93;;;4.90;;
6288;SDS011;3177;49.880;8.836;2023-04-06T10:42:15;9.70;;;5.38;;
6288;SDS011;3177;49.880;8.836;2023-04-06T10:44:42;7.72;;;4.90;;
6288;SDS011;3177;49.880;8.836;2023-04-06T10:47:15;7.97;;;5.72;;
6288;SDS011;3177;49.880;8.836;2023-04-06T10:49:42;10.27;;;6.32;;
6288;SDS011;3177;49.880;8.836;2023-04-06T10:52:10;9.25;;;5.45;;
6288;SDS011;3177;49.880;8.836;2023-04-06T10:54:39;6.43;;;5.07;;
6288;SDS011;3177;49.880;8.836;2023-04-06T10:57:07;6.15;;;4.88;;
6288;SDS011;3177;49.880;8.836;2023-04-06T10:59:36;6.80;;;5.50;;
6288;SDS011;3177;49.880;8.836;2023-04-06T11:02:03;7.90;;;6.28;;
6288;SDS011;3177;49.880;8.836;2023-04-06T11:04:31;9.38;;;5.93;;
6288;SDS011;3177;49.880;8.836;2023-04-06T11:06:58;9.00;;;5.43;;
6288;SDS011;3177;49.880;8.836;2023-04-06T11:09:25;9.30;;;6.03;;
6288;SDS011;3177;49.880;8.836;2023-04-06T11:11:53;6.97;;;5.93;;
6288;SDS011;3177;49.880;8.836;2023-04-06T11:14:21;7.47;;;5.20;;
6288;SDS011;3177;49.880;8.836;2023-04-06T11:16:49;8.75;;;5.78;;
6288;SDS011;3177;49.880;8.836;2023-04-06T11:19:17;7.10;;;5.70;;
6288;SDS011;3177;49.880;8.836;2023-04-06T11:21:45;6.50;;;5.32;;
6288;SDS011;3177;49.880;8.836;2023-04-06T11:24:14;5.38;;;4.72;;
6288;SDS011;3177;49.880;8.836;2023-04-06T11:26:42;6.72;;;5.63;;
6288;SDS011;3177;49.880;8.836;2023-04-06T11:29:10;9.55;;;5.65;;
6288;SDS011;3177;49.880;8.836;2023-04-06T11:31:40;5.93;;;5.03;;
6288;SDS011;3177;49.880;8.836;2023-04-06T11:34:16;7.88;;;5.22;;
6288;SDS011;3177;49.880;8.836;2023-04-06T11:36:44;7.07;;;5.60;;
6288;SDS011;3177;49.880;8.836;2023-04-06T11:39:11;6.55;;;4.97;;
6288;SDS011;3177;49.880;8.836;2023-04-06T11:41:39;10.68;;;5.50;;
6288;SDS011;3177;49.880;8.836;2023-04-06T11:44:06;6.05;;;5.45;;
6288;SDS011;3177;49.880;8.836;2023-04-06T11:46:33;7.22;;;5.65;;
6288;SDS011;3177;49.880;8.836;2023-04-06T11:49:00;9.38;;;6.50;;
6288;SDS011;3177;49.880;8.836;2023-04-06T11:51:29;6.63;;;5.57;;
6288;SDS011;3177;49.880;8.836;2023-04-06T11:53:56;10.27;;;6.32;;
6288;SDS011;3177;49.880;8.836;2023-04-06T11:56:24;8.10;;;5.40;;
6288;SDS011;3177;49.880;8.836;2023-04-06T11:58:51;6.57;;;5.20;;
6288;SDS011;3177;49.880;8.836;2023-04-06T12:01:18;9.75;;;6.07;;
6288;SDS011;3177;49.880;8.836;2023-04-06T12:03:45;7.32;;;5.97;;
6288;SDS011;3177;49.880;8.836;2023-04-06T12:06:12;7.07;;;5.65;;
6288;SDS011;3177;49.880;8.836;2023-04-06T12:08:41;7.90;;;5.70;;
6288;SDS011;3177;49.880;8.836;2023-04-06T12:11:08;6.63;;;5.00;;
6288;SDS011;3177;49.880;8.836;2023-04-06T12:13:35;6.05;;;5.40;;
6288;SDS011;3177;49.880;8.836;2023-04-06T12:16:02;7.82;;;6.63;;
6288;SDS011;3177;49.880;8.836;2023-04-06T12:18:29;10.20;;;7.50;;
6288;SDS011;3177;49.880;8.836;2023-04-06T12:20:56;6.72;;;5.40;;
6288;SDS011;3177;49.880;8.836;2023-04-06T12:23:23;6.75;;;5.82;;
6288;SDS011;3177;49.880;8.836;2023-04-06T12:25:51;8.15;;;5.53;;
6288;SDS011;3177;49.880;8.836;2023-04-06T12:28:19;6.53;;;5.38;;
6288;SDS011;3177;49.880;8.836;2023-04-06T12:30:50;7.28;;;5.50;;
6288;SDS011;3177;49.880;8.836;2023-04-06T12:33:17;7.25;;;5.57;;
6288;SDS011;3177;49.880;8.836;2023-04-06T12:35:44;8.05;;;5.97;;
6288;SDS011;3177;49.880;8.836;2023-04-06T12:38:12;7.85;;;5.55;;
6288;SDS011;3177;49.880;8.836;2023-04-06T12:40:41;6.50;;;4.97;;
6288;SDS011;3177;49.880;8.836;2023-04-06T12:43:09;6.00;;;4.53;;
6288;SDS011;3177;49.880;8.836;2023-04-06T12:45:38;7.47;;;5.25;;
6288;SDS011;3177;49.880;8.836;2023-04-06T12:48:05;6.13;;;4.88;;
6288;SDS011;3177;49.880;8.836;2023-04-06T12:50:33;6.53;;;5.45;;
6288;SDS011;3177;49.880;8.836;2023-04-06T12:53:00;5.38;;;4.50;;
6288;SDS011;3177;49.880;8.836;2023-04-06T12:55:29;5.63;;;4.85;;
6288;SDS011;3177;49.880;8.836;2023-04-06T12:58:01;8.32;;;4.78;;
6288;SDS011;3177;49.880;8.836;2023-04-06T13:00:29;5.32;;;4.35;;
6288;SDS011;3177;49.880;8.836;2023-04-06T13:02:56;4.88;;;4.32;;
6288;SDS011;3177;49.880;8.836;2023-04-06T13:05:26;5.85;;;4.68;;
6288;SDS011;3177;49.880;8.836;2023-04-06T13:07:53;5.60;;;4.90;;
6288;SDS011;3177;49.880;8.836;2023-04-06T13:10:20;4.88;;;4.45;;
6288;SDS011;3177;49.880;8.836;2023-04-06T13:12:47;5.40;;;4.28;;
6288;SDS011;3177;49.880;8.836;2023-04-06T13:15:14;6.43;;;4.22;;
6288;SDS011;3177;49.880;8.836;2023-04-06T13:17:42;5.28;;;4.05;;
6288;SDS011;3177;49.880;8.836;2023-04-06T13:20:10;4.70;;;4.20;;
6288;SDS011;3177;49.880;8.836;2023-04-06T13:22:37;8.82;;;6.13;;
6288;SDS011;3177;49.880;8.836;2023-04-06T13:25:04;5.25;;;4.47;;
6288;SDS011;3177;49.880;8.836;2023-04-06T13:27:31;5.07;;;4.40;;
6288;SDS011;3177;49.880;8.836;2023-04-06T13:30:00;4.47;;;3.97;;
6288;SDS011;3177;49.880;8.836;2023-04-06T13:32:28;4.57;;;3.88;;
6288;SDS011;3177;49.880;8.836;2023-04-06T13:34:57;7.10;;;4.20;;
6288;SDS011;3177;49.880;8.836;2023-04-06T13:37:25;5.55;;;3.90;;
6288;SDS011;3177;49.880;8.836;2023-04-06T13:39:52;3.85;;;3.47;;
6288;SDS011;3177;49.880;8.836;2023-04-06T13:42:19;4.65;;;3.63;;
6288;SDS011;3177;49.880;8.836;2023-04-06T13:44:46;4.38;;;3.72;;
6288;SDS011;3177;49.880;8.836;2023-04-06T13:47:15;4.57;;;3.35;;
6288;SDS011;3177;49.880;8.836;2023-04-06T13:49:42;4.32;;;3.50;;
6288;SDS011;3177;49.880;8.836;2023-04-06T13:52:11;4.40;;;3.92;;
6288;SDS011;3177;49.880;8.836;2023-04-06T13:54:38;4.03;;;3.63;;
6288;SDS011;3177;49.880;8.836;2023-04-06T13:57:05;4.90;;;3.92;;
6288;SDS011;3177;49.880;8.836;2023-04-06T13:59:32;4.50;;;3.78;;
6288;SDS011;3177;49.880;8.836;2023-04-06T14:01:59;5.53;;;3.97;;
6288;SDS011;3177;49.880;8.836;2023-04-06T14:04:26;4.75;;;3.80;;
6288;SDS011;3177;49.880;8.836;2023-04-06T14:06:53;4.93;;;4.20;;
6288;SDS011;3177;49.880;8.836;2023-04-06T14:09:22;4.22;;;3.83;;
6288;SDS011;3177;49.880;8.836;2023-04-06T14:11:50;6.47;;;4.43;;
6288;SDS011;3177;49.880;8.836;2023-04-06T14:14:18;4.30;;;3.90;;
6288;SDS011;3177;49.880;8.836;2023-04-06T14:16:45;5.10;;;4.05;;
6288;SDS011;3177;49.880;8.836;2023-04-06T14:19:13;4.72;;;4.22;;
6288;SDS011;3177;49.880;8.836;2023-04-06T14:21:42;4.97;;;4.47;;
6288;SDS011;3177;49.880;8.836;2023-04-06T14:24:10;5.20;;;4.18;;
6288;SDS011;3177;49.880;8.836;2023-04-06T14:26:40;5.70;;;4.90;;
6288;SDS011;3177;49.880;8.836;2023-04-06T14:29:07;4.60;;;4.13;;
6288;SDS011;3177;49.880;8.836;2023-04-06T14:31:35;5.60;;;4.50;;
6288;SDS011;3177;49.880;8.836;2023-04-06T14:34:02;5.00;;;4.50;;
6288;SDS011;3177;49.880;8.836;2023-04-06T14:36:30;8.48;;;6.05;;
6288;SDS011;3177;49.880;8.836;2023-04-06T14:39:01;9.35;;;5.32;;
6288;SDS011;3177;49.880;8.836;2023-04-06T14:41:32;11.93;;;5.35;;
6288;SDS011;3177;49.880;8.836;2023-04-06T14:44:01;5.65;;;4.55;;
6288;SDS011;3177;49.880;8.836;2023-04-06T14:46:28;5.43;;;4.63;;
6288;SDS011;3177;49.880;8.836;2023-04-06T14:48:55;5.25;;;4.75;;
6288;SDS011;3177;49.880;8.836;2023-04-06T14:51:23;6.65;;;4.50;;
6288;SDS011;3177;49.880;8.836;2023-04-06T14:53:51;6.05;;;4.97;;
6288;SDS011;3177;49.880;8.836;2023-04-06T14:56:19;5.47;;;4.50;;
6288;SDS011;3177;49.880;8.836;2023-04-06T14:58:46;5.25;;;4.43;;
6288;SDS011;3177;49.880;8.836;2023-04-06T15:01:22;5.78;;;4.60;;
6288;SDS011;3177;49.880;8.836;2023-04-06T15:03:50;5.93;;;5.13;;
6288;SDS011;3177;49.880;8.836;2023-04-06T15:06:19;7.93;;;4.95;;
6288;SDS011;3177;49.880;8.836;2023-04-06T15:08:47;7.55;;;4.72;;
6288;SDS011;3177;49.880;8.836;2023-04-06T15:11:16;5.18;;;4.35;;
6288;SDS011;3177;49.880;8.836;2023-04-06T15:13:43;7.28;;;5.10;;
6288;SDS011;3177;49.880;8.836;2023-04-06T15:16:11;6.72;;;5.07;;
6288;SDS011;3177;49.880;8.836;2023-04-06T15:18:41;7.13;;;4.38;;